sensor_id;sensor_type;location;lat;lon;timestamp;temperature;humidity
21481;DHT22;10902;48.158;8.634;2023-02-15T00:00:53;-1.80;99.90
21481;DHT22;10902;48.158;8.634;2023-02-15T00:03:21;-1.80;99.90
21481;DHT22;10902;48.158;8.634;2023-02-15T00:05:47;-1.80;99.90
21481;DHT22;10902;48.158;8.634;2023-02-15T00:08:12;-1.80;99.90
21481;DHT22;10902;48.158;8.634;2023-02-15T00:10:38;-1.80;99.90
21481;DHT22;10902;48.158;8.634;2023-02-15T00:13:03;-1.90;99.90
21481;DHT22;10902;48.158;8.634;2023-02-15T00:15:29;-1.90;99.90
21481;DHT22;10902;48.158;8.634;2023-02-15T00:17:56;-2.00;99.90
21481;DHT22;10902;48.158;8.634;2023-02-15T00:20:22;-1.90;99.90
21481;DHT22;10902;48.158;8.634;2023-02-15T00:22:48;-1.90;99.90
21481;DHT22;10902;48.158;8.634;2023-02-15T00:25:13;-2.00;99.90
21481;DHT22;10902;48.158;8.634;2023-02-15T00:27:39;-1.80;99.90
21481;DHT22;10902;48.158;8.634;2023-02-15T00:30:05;-1.60;99.90
21481;DHT22;10902;48.158;8.634;2023-02-15T00:32:31;-1.60;99.90
21481;DHT22;10902;48.158;8.634;2023-02-15T00:34:57;-1.60;99.90
21481;DHT22;10902;48.158;8.634;2023-02-15T00:37:22;-1.40;99.90
21481;DHT22;10902;48.158;8.634;2023-02-15T00:39:48;-1.30;99.90
21481;DHT22;10902;48.158;8.634;2023-02-15T00:42:13;-1.10;99.90
21481;DHT22;10902;48.158;8.634;2023-02-15T00:44:39;-1.10;99.90
21481;DHT22;10902;48.158;8.634;2023-02-15T00:47:04;-1.10;99.90
21481;DHT22;10902;48.158;8.634;2023-02-15T00:49:30;-1.20;99.90
21481;DHT22;10902;48.158;8.634;2023-02-15T00:51:55;-1.40;99.90
21481;DHT22;10902;48.158;8.634;2023-02-15T00:54:21;-1.50;99.90
21481;DHT22;10902;48.158;8.634;2023-02-15T00:56:46;-1.70;99.90
21481;DHT22;10902;48.158;8.634;2023-02-15T00:59:12;-1.70;99.90
21481;DHT22;10902;48.158;8.634;2023-02-15T01:01:38;-1.70;99.90
21481;DHT22;10902;48.158;8.634;2023-02-15T01:04:04;-1.80;99.90
21481;DHT22;10902;48.158;8.634;2023-02-15T01:06:29;-1.90;99.90
21481;DHT22;10902;48.158;8.634;2023-02-15T01:08:55;-2.00;99.90
21481;DHT22;10902;48.158;8.634;2023-02-15T01:11:22;-2.10;99.90
21481;DHT22;10902;48.158;8.634;2023-02-15T01:13:49;-2.30;99.90
21481;DHT22;10902;48.158;8.634;2023-02-15T01:16:15;-2.30;99.90
21481;DHT22;10902;48.158;8.634;2023-02-15T01:18:40;-2.20;99.90
21481;DHT22;10902;48.158;8.634;2023-02-15T01:21:15;-2.10;99.90
21481;DHT22;10902;48.158;8.634;2023-02-15T01:23:42;-2.10;99.90
21481;DHT22;10902;48.158;8.634;2023-02-15T01:26:08;-2.10;99.90
21481;DHT22;10902;48.158;8.634;2023-02-15T01:28:35;-2.10;99.90
21481;DHT22;10902;48.158;8.634;2023-02-15T01:31:09;-2.20;99.90
21481;DHT22;10902;48.158;8.634;2023-02-15T01:33:35;-2.30;99.90
21481;DHT22;10902;48.158;8.634;2023-02-15T01:36:02;-2.40;99.90
21481;DHT22;10902;48.158;8.634;2023-02-15T01:38:27;-2.50;99.90
21481;DHT22;10902;48.158;8.634;2023-02-15T01:40:53;-2.40;99.90
21481;DHT22;10902;48.158;8.634;2023-02-15T01:43:45;-2.30;99.90
21481;DHT22;10902;48.158;8.634;2023-02-15T01:46:12;-2.30;99.90
21481;DHT22;10902;48.158;8.634;2023-02-15T01:48:47;-2.30;99.90
21481;DHT22;10902;48.158;8.634;2023-02-15T01:51:15;-2.20;99.90
21481;DHT22;10902;48.158;8.634;2023-02-15T01:53:47;-2.20;99.90
21481;DHT22;10902;48.158;8.634;2023-02-15T01:56:19;-2.10;99.90
21481;DHT22;10902;48.158;8.634;2023-02-15T01:58:45;-2.10;99.90
21481;DHT22;10902;48.158;8.634;2023-02-15T02:01:12;-2.10;99.90
21481;DHT22;10902;48.158;8.634;2023-02-15T02:06:57;-2.10;99.90
21481;DHT22;10902;48.158;8.634;2023-02-15T02:09:24;-2.10;99.90
21481;DHT22;10902;48.158;8.634;2023-02-15T02:11:50;-2.20;99.90
21481;DHT22;10902;48.158;8.634;2023-02-15T02:14:16;-2.30;99.90
21481;DHT22;10902;48.158;8.634;2023-02-15T02:30:53;-2.60;99.90
21481;DHT22;10902;48.158;8.634;2023-02-15T02:33:40;-2.50;99.90
21481;DHT22;10902;48.158;8.634;2023-02-15T02:41:42;-2.40;99.90
21481;DHT22;10902;48.158;8.634;2023-02-15T02:44:19;-2.40;99.90
21481;DHT22;10902;48.158;8.634;2023-02-15T02:46:53;-2.40;99.90
21481;DHT22;10902;48.158;8.634;2023-02-15T02:49:40;-2.40;99.90
21481;DHT22;10902;48.158;8.634;2023-02-15T02:55:05;-2.40;99.90
21481;DHT22;10902;48.158;8.634;2023-02-15T02:57:32;-2.50;99.90
21481;DHT22;10902;48.158;8.634;2023-02-15T03:00:02;-2.60;99.90
21481;DHT22;10902;48.158;8.634;2023-02-15T03:02:32;-2.70;99.90
21481;DHT22;10902;48.158;8.634;2023-02-15T03:05:03;-2.80;99.90
21481;DHT22;10902;48.158;8.634;2023-02-15T03:07:31;-2.90;99.90
21481;DHT22;10902;48.158;8.634;2023-02-15T03:10:00;-2.80;99.90
21481;DHT22;10902;48.158;8.634;2023-02-15T03:12:34;-2.70;99.90
21481;DHT22;10902;48.158;8.634;2023-02-15T03:15:05;-2.60;99.90
21481;DHT22;10902;48.158;8.634;2023-02-15T03:17:33;-2.50;99.90
21481;DHT22;10902;48.158;8.634;2023-02-15T03:20:09;-2.60;99.90
21481;DHT22;10902;48.158;8.634;2023-02-15T03:22:59;-2.60;99.90
21481;DHT22;10902;48.158;8.634;2023-02-15T03:25:36;-2.60;99.90
21481;DHT22;10902;48.158;8.634;2023-02-15T03:28:06;-2.50;99.90
21481;DHT22;10902;48.158;8.634;2023-02-15T03:30:35;-2.50;99.90
21481;DHT22;10902;48.158;8.634;2023-02-15T03:33:03;-2.40;99.90
21481;DHT22;10902;48.158;8.634;2023-02-15T03:38:44;-2.40;99.90
21481;DHT22;10902;48.158;8.634;2023-02-15T03:41:15;-2.50;99.90
21481;DHT22;10902;48.158;8.634;2023-02-15T03:43:52;-2.60;99.90
21481;DHT22;10902;48.158;8.634;2023-02-15T03:46:32;-2.70;99.90
21481;DHT22;10902;48.158;8.634;2023-02-15T03:49:12;-2.60;99.90
21481;DHT22;10902;48.158;8.634;2023-02-15T03:51:40;-2.40;99.90
21481;DHT22;10902;48.158;8.634;2023-02-15T03:54:10;-2.30;99.90
21481;DHT22;10902;48.158;8.634;2023-02-15T03:56:40;-2.30;99.90
21481;DHT22;10902;48.158;8.634;2023-02-15T03:59:07;-2.20;99.90
21481;DHT22;10902;48.158;8.634;2023-02-15T04:02:04;-2.30;99.90
21481;DHT22;10902;48.158;8.634;2023-02-15T04:04:41;-2.40;99.90
21481;DHT22;10902;48.158;8.634;2023-02-15T04:07:09;-2.50;99.90
21481;DHT22;10902;48.158;8.634;2023-02-15T04:09:35;-2.50;99.90
21481;DHT22;10902;48.158;8.634;2023-02-15T04:12:20;-2.60;99.90
21481;DHT22;10902;48.158;8.634;2023-02-15T04:14:45;-2.70;99.90
21481;DHT22;10902;48.158;8.634;2023-02-15T04:17:30;-2.70;99.90
21481;DHT22;10902;48.158;8.634;2023-02-15T04:19:55;-2.60;99.90
21481;DHT22;10902;48.158;8.634;2023-02-15T04:22:39;-2.60;99.90
21481;DHT22;10902;48.158;8.634;2023-02-15T04:25:23;-2.60;99.90
21481;DHT22;10902;48.158;8.634;2023-02-15T04:27:51;-2.70;99.90
21481;DHT22;10902;48.158;8.634;2023-02-15T04:30:19;-2.70;99.90
21481;DHT22;10902;48.158;8.634;2023-02-15T04:32:45;-2.60;99.90
21481;DHT22;10902;48.158;8.634;2023-02-15T04:35:11;-2.60;99.90
21481;DHT22;10902;48.158;8.634;2023-02-15T04:37:38;-2.60;99.90
21481;DHT22;10902;48.158;8.634;2023-02-15T04:40:05;-2.50;99.90
21481;DHT22;10902;48.158;8.634;2023-02-15T04:42:31;-2.50;99.90
21481;DHT22;10902;48.158;8.634;2023-02-15T04:44:56;-2.60;99.90
21481;DHT22;10902;48.158;8.634;2023-02-15T04:47:22;-2.60;99.90
21481;DHT22;10902;48.158;8.634;2023-02-15T04:49:48;-2.60;99.90
21481;DHT22;10902;48.158;8.634;2023-02-15T04:52:14;-2.60;99.90
21481;DHT22;10902;48.158;8.634;2023-02-15T04:54:39;-2.60;99.90
21481;DHT22;10902;48.158;8.634;2023-02-15T04:57:05;-2.70;99.90
21481;DHT22;10902;48.158;8.634;2023-02-15T04:59:31;-2.70;99.90
21481;DHT22;10902;48.158;8.634;2023-02-15T05:01:57;-2.70;99.90
21481;DHT22;10902;48.158;8.634;2023-02-15T05:04:23;-2.60;99.90
21481;DHT22;10902;48.158;8.634;2023-02-15T05:06:48;-2.60;99.90
21481;DHT22;10902;48.158;8.634;2023-02-15T05:09:15;-2.60;99.90
21481;DHT22;10902;48.158;8.634;2023-02-15T05:11:40;-2.50;99.90
21481;DHT22;10902;48.158;8.634;2023-02-15T05:14:06;-2.40;99.90
21481;DHT22;10902;48.158;8.634;2023-02-15T05:16:32;-2.50;99.90
21481;DHT22;10902;48.158;8.634;2023-02-15T05:18:57;-2.60;99.90
21481;DHT22;10902;48.158;8.634;2023-02-15T05:21:23;-2.60;99.90
21481;DHT22;10902;48.158;8.634;2023-02-15T05:23:48;-2.60;99.90
21481;DHT22;10902;48.158;8.634;2023-02-15T05:26:18;-2.60;99.90
21481;DHT22;10902;48.158;8.634;2023-02-15T05:29:03;-2.60;99.90
21481;DHT22;10902;48.158;8.634;2023-02-15T05:31:30;-2.70;99.90
21481;DHT22;10902;48.158;8.634;2023-02-15T05:33:55;-2.70;99.90
21481;DHT22;10902;48.158;8.634;2023-02-15T05:36:21;-2.60;99.90
21481;DHT22;10902;48.158;8.634;2023-02-15T05:38:46;-2.70;99.90
21481;DHT22;10902;48.158;8.634;2023-02-15T05:41:12;-2.60;99.90
21481;DHT22;10902;48.158;8.634;2023-02-15T05:43:38;-2.60;99.90
21481;DHT22;10902;48.158;8.634;2023-02-15T05:46:04;-2.60;99.90
21481;DHT22;10902;48.158;8.634;2023-02-15T05:48:31;-2.60;99.90
21481;DHT22;10902;48.158;8.634;2023-02-15T05:53:31;-2.70;99.90
21481;DHT22;10902;48.158;8.634;2023-02-15T05:55:57;-2.70;99.90
21481;DHT22;10902;48.158;8.634;2023-02-15T05:58:29;-2.70;99.90
21481;DHT22;10902;48.158;8.634;2023-02-15T06:00:55;-2.70;99.90
21481;DHT22;10902;48.158;8.634;2023-02-15T06:03:21;-2.80;99.90
21481;DHT22;10902;48.158;8.634;2023-02-15T06:05:47;-2.70;99.90
21481;DHT22;10902;48.158;8.634;2023-02-15T06:08:12;-2.60;99.90
21481;DHT22;10902;48.158;8.634;2023-02-15T06:10:38;-2.60;99.90
21481;DHT22;10902;48.158;8.634;2023-02-15T06:13:05;-2.60;99.90
21481;DHT22;10902;48.158;8.634;2023-02-15T06:15:31;-2.80;99.90
21481;DHT22;10902;48.158;8.634;2023-02-15T06:17:57;-2.80;99.90
21481;DHT22;10902;48.158;8.634;2023-02-15T06:20:22;-2.80;99.90
21481;DHT22;10902;48.158;8.634;2023-02-15T06:22:48;-2.90;99.90
21481;DHT22;10902;48.158;8.634;2023-02-15T06:25:13;-2.70;99.90
21481;DHT22;10902;48.158;8.634;2023-02-15T06:27:41;-2.90;99.90
21481;DHT22;10902;48.158;8.634;2023-02-15T06:30:08;-2.70;99.90
21481;DHT22;10902;48.158;8.634;2023-02-15T06:32:34;-2.60;99.90
21481;DHT22;10902;48.158;8.634;2023-02-15T06:35:00;-2.70;99.90
21481;DHT22;10902;48.158;8.634;2023-02-15T06:37:25;-2.70;99.90
21481;DHT22;10902;48.158;8.634;2023-02-15T06:39:51;-2.60;99.90
21481;DHT22;10902;48.158;8.634;2023-02-15T06:42:16;-2.70;99.90
21481;DHT22;10902;48.158;8.634;2023-02-15T06:44:43;-2.70;99.90
21481;DHT22;10902;48.158;8.634;2023-02-15T06:47:09;-2.80;99.90
21481;DHT22;10902;48.158;8.634;2023-02-15T06:49:36;-2.90;99.90
21481;DHT22;10902;48.158;8.634;2023-02-15T06:52:02;-3.00;99.90
21481;DHT22;10902;48.158;8.634;2023-02-15T06:54:27;-3.00;99.90
21481;DHT22;10902;48.158;8.634;2023-02-15T06:56:53;-2.90;99.90
21481;DHT22;10902;48.158;8.634;2023-02-15T06:59:18;-2.90;99.90
21481;DHT22;10902;48.158;8.634;2023-02-15T07:01:44;-2.80;99.90
21481;DHT22;10902;48.158;8.634;2023-02-15T07:04:10;-2.70;99.90
21481;DHT22;10902;48.158;8.634;2023-02-15T07:06:35;-2.50;99.90
21481;DHT22;10902;48.158;8.634;2023-02-15T07:09:01;-2.60;99.90
21481;DHT22;10902;48.158;8.634;2023-02-15T07:11:27;-2.60;99.90
21481;DHT22;10902;48.158;8.634;2023-02-15T07:14:11;-2.50;99.90
21481;DHT22;10902;48.158;8.634;2023-02-15T07:16:37;-2.50;99.90
21481;DHT22;10902;48.158;8.634;2023-02-15T07:19:02;-2.50;99.90
21481;DHT22;10902;48.158;8.634;2023-02-15T07:21:28;-2.50;99.90
21481;DHT22;10902;48.158;8.634;2023-02-15T07:23:56;-2.50;99.90
21481;DHT22;10902;48.158;8.634;2023-02-15T07:26:23;-2.50;99.90
21481;DHT22;10902;48.158;8.634;2023-02-15T07:28:48;-2.40;99.90
21481;DHT22;10902;48.158;8.634;2023-02-15T07:31:14;-2.30;99.90
21481;DHT22;10902;48.158;8.634;2023-02-15T07:33:40;-2.30;99.90
21481;DHT22;10902;48.158;8.634;2023-02-15T07:36:06;-2.20;99.90
21481;DHT22;10902;48.158;8.634;2023-02-15T07:38:34;-2.20;99.90
21481;DHT22;10902;48.158;8.634;2023-02-15T07:41:01;-2.30;99.90
21481;DHT22;10902;48.158;8.634;2023-02-15T07:43:27;-2.20;99.90
21481;DHT22;10902;48.158;8.634;2023-02-15T07:45:53;-2.10;99.90
21481;DHT22;10902;48.158;8.634;2023-02-15T07:48:18;-2.00;99.90
21481;DHT22;10902;48.158;8.634;2023-02-15T07:50:44;-1.80;99.90
21481;DHT22;10902;48.158;8.634;2023-02-15T07:53:09;-1.60;99.90
21481;DHT22;10902;48.158;8.634;2023-02-15T07:55:35;-1.50;99.90
21481;DHT22;10902;48.158;8.634;2023-02-15T07:58:01;-1.40;99.90
21481;DHT22;10902;48.158;8.634;2023-02-15T08:00:26;-1.30;99.90
21481;DHT22;10902;48.158;8.634;2023-02-15T08:02:54;-1.20;99.90
21481;DHT22;10902;48.158;8.634;2023-02-15T08:05:39;-1.10;99.90
21481;DHT22;10902;48.158;8.634;2023-02-15T08:08:06;-1.00;99.90
21481;DHT22;10902;48.158;8.634;2023-02-15T08:10:32;-0.80;99.90
21481;DHT22;10902;48.158;8.634;2023-02-15T08:13:16;-0.80;99.90
21481;DHT22;10902;48.158;8.634;2023-02-15T08:15:51;-0.70;99.90
21481;DHT22;10902;48.158;8.634;2023-02-15T08:18:17;-0.70;99.90
21481;DHT22;10902;48.158;8.634;2023-02-15T08:20:48;-0.70;99.90
21481;DHT22;10902;48.158;8.634;2023-02-15T08:23:13;-0.60;99.90
21481;DHT22;10902;48.158;8.634;2023-02-15T08:25:39;-0.50;99.90
21481;DHT22;10902;48.158;8.634;2023-02-15T08:28:05;-0.40;99.90
21481;DHT22;10902;48.158;8.634;2023-02-15T08:30:30;-0.30;99.90
21481;DHT22;10902;48.158;8.634;2023-02-15T08:32:56;0.00;99.90
21481;DHT22;10902;48.158;8.634;2023-02-15T08:35:21;0.10;99.90
21481;DHT22;10902;48.158;8.634;2023-02-15T08:37:47;0.30;99.90
21481;DHT22;10902;48.158;8.634;2023-02-15T08:40:12;0.60;99.90
21481;DHT22;10902;48.158;8.634;2023-02-15T08:42:39;0.90;99.90
21481;DHT22;10902;48.158;8.634;2023-02-15T08:45:04;1.10;99.90
21481;DHT22;10902;48.158;8.634;2023-02-15T08:47:30;1.30;99.90
21481;DHT22;10902;48.158;8.634;2023-02-15T08:49:55;1.50;99.90
21481;DHT22;10902;48.158;8.634;2023-02-15T08:52:21;1.70;99.90
21481;DHT22;10902;48.158;8.634;2023-02-15T08:54:47;1.90;99.90
21481;DHT22;10902;48.158;8.634;2023-02-15T08:57:12;2.00;99.90
21481;DHT22;10902;48.158;8.634;2023-02-15T08:59:38;2.30;99.90
21481;DHT22;10902;48.158;8.634;2023-02-15T09:02:03;2.50;99.90
21481;DHT22;10902;48.158;8.634;2023-02-15T09:04:29;2.80;99.90
21481;DHT22;10902;48.158;8.634;2023-02-15T09:06:54;3.20;99.90
21481;DHT22;10902;48.158;8.634;2023-02-15T09:09:21;3.40;99.90
21481;DHT22;10902;48.158;8.634;2023-02-15T09:11:49;3.90;99.90
21481;DHT22;10902;48.158;8.634;2023-02-15T09:14:18;4.40;99.90
21481;DHT22;10902;48.158;8.634;2023-02-15T09:16:46;4.80;99.90
21481;DHT22;10902;48.158;8.634;2023-02-15T09:19:14;4.70;99.90
21481;DHT22;10902;48.158;8.634;2023-02-15T09:21:40;5.00;99.90
21481;DHT22;10902;48.158;8.634;2023-02-15T09:24:08;5.10;99.90
21481;DHT22;10902;48.158;8.634;2023-02-15T09:26:36;5.20;99.90
21481;DHT22;10902;48.158;8.634;2023-02-15T09:29:02;5.40;99.90
21481;DHT22;10902;48.158;8.634;2023-02-15T09:31:36;5.60;99.90
21481;DHT22;10902;48.158;8.634;2023-02-15T09:34:02;5.70;99.90
21481;DHT22;10902;48.158;8.634;2023-02-15T09:36:32;6.00;99.90
21481;DHT22;10902;48.158;8.634;2023-02-15T09:39:41;6.30;99.90
21481;DHT22;10902;48.158;8.634;2023-02-15T09:42:26;6.50;99.90
21481;DHT22;10902;48.158;8.634;2023-02-15T09:50:44;6.60;99.90
21481;DHT22;10902;48.158;8.634;2023-02-15T09:56:18;7.10;99.90
21481;DHT22;10902;48.158;8.634;2023-02-15T10:04:14;7.90;99.90
21481;DHT22;10902;48.158;8.634;2023-02-15T10:10:12;8.20;99.90
21481;DHT22;10902;48.158;8.634;2023-02-15T10:24:19;9.30;99.90
21481;DHT22;10902;48.158;8.634;2023-02-15T10:26:49;9.70;99.90
21481;DHT22;10902;48.158;8.634;2023-02-15T10:29:35;9.80;99.90
21481;DHT22;10902;48.158;8.634;2023-02-15T10:32:26;10.00;99.90
21481;DHT22;10902;48.158;8.634;2023-02-15T10:35:00;10.30;99.90
21481;DHT22;10902;48.158;8.634;2023-02-15T10:37:53;10.80;99.90
21481;DHT22;10902;48.158;8.634;2023-02-15T10:40:48;12.10;99.90
21481;DHT22;10902;48.158;8.634;2023-02-15T10:48:58;13.30;99.90
21481;DHT22;10902;48.158;8.634;2023-02-15T11:00:17;15.20;99.90
21481;DHT22;10902;48.158;8.634;2023-02-15T11:03:16;15.10;99.90
21481;DHT22;10902;48.158;8.634;2023-02-15T11:08:45;16.60;99.90
21481;DHT22;10902;48.158;8.634;2023-02-15T11:11:19;16.50;99.90
21481;DHT22;10902;48.158;8.634;2023-02-15T11:13:53;15.90;99.90
21481;DHT22;10902;48.158;8.634;2023-02-15T11:16:37;15.90;99.90
21481;DHT22;10902;48.158;8.634;2023-02-15T11:19:22;16.00;99.90
21481;DHT22;10902;48.158;8.634;2023-02-15T11:22:01;15.40;99.90
21481;DHT22;10902;48.158;8.634;2023-02-15T11:24:30;15.10;99.90
21481;DHT22;10902;48.158;8.634;2023-02-15T11:27:02;15.40;99.90
21481;DHT22;10902;48.158;8.634;2023-02-15T11:32:01;17.60;99.90
21481;DHT22;10902;48.158;8.634;2023-02-15T11:34:40;17.80;99.90
21481;DHT22;10902;48.158;8.634;2023-02-15T11:37:17;18.70;99.90
21481;DHT22;10902;48.158;8.634;2023-02-15T11:39:44;19.50;99.90
21481;DHT22;10902;48.158;8.634;2023-02-15T11:42:13;19.60;99.90
21481;DHT22;10902;48.158;8.634;2023-02-15T11:47:11;20.20;99.90
21481;DHT22;10902;48.158;8.634;2023-02-15T11:49:37;19.60;99.90
21481;DHT22;10902;48.158;8.634;2023-02-15T11:52:10;21.00;99.90
21481;DHT22;10902;48.158;8.634;2023-02-15T11:54:41;20.50;99.90
21481;DHT22;10902;48.158;8.634;2023-02-15T11:57:23;20.30;99.90
21481;DHT22;10902;48.158;8.634;2023-02-15T11:59:57;22.20;99.90
21481;DHT22;10902;48.158;8.634;2023-02-15T12:02:23;22.20;99.90
21481;DHT22;10902;48.158;8.634;2023-02-15T12:04:58;21.90;99.90
21481;DHT22;10902;48.158;8.634;2023-02-15T12:07:30;22.10;99.90
21481;DHT22;10902;48.158;8.634;2023-02-15T12:10:04;23.00;98.00
21481;DHT22;10902;48.158;8.634;2023-02-15T12:12:37;22.30;96.30
21481;DHT22;10902;48.158;8.634;2023-02-15T12:15:08;22.60;97.20
21481;DHT22;10902;48.158;8.634;2023-02-15T12:17:39;23.20;96.30
21481;DHT22;10902;48.158;8.634;2023-02-15T12:22:45;25.60;93.30
21481;DHT22;10902;48.158;8.634;2023-02-15T12:25:39;25.40;90.60
21481;DHT22;10902;48.158;8.634;2023-02-15T12:28:26;25.70;89.80
21481;DHT22;10902;48.158;8.634;2023-02-15T12:30:56;25.10;85.10
21481;DHT22;10902;48.158;8.634;2023-02-15T12:33:41;24.90;84.50
21481;DHT22;10902;48.158;8.634;2023-02-15T12:36:15;26.10;84.30
21481;DHT22;10902;48.158;8.634;2023-02-15T12:38:42;26.70;83.10
21481;DHT22;10902;48.158;8.634;2023-02-15T12:41:26;27.10;79.20
21481;DHT22;10902;48.158;8.634;2023-02-15T12:44:30;26.40;79.50
21481;DHT22;10902;48.158;8.634;2023-02-15T12:47:05;27.20;77.50
21481;DHT22;10902;48.158;8.634;2023-02-15T12:49:38;25.90;76.20
21481;DHT22;10902;48.158;8.634;2023-02-15T12:54:45;26.10;76.60
21481;DHT22;10902;48.158;8.634;2023-02-15T12:57:25;26.70;76.30
21481;DHT22;10902;48.158;8.634;2023-02-15T12:59:52;26.40;77.30
21481;DHT22;10902;48.158;8.634;2023-02-15T13:02:29;26.50;75.00
21481;DHT22;10902;48.158;8.634;2023-02-15T13:04:57;26.60;75.30
21481;DHT22;10902;48.158;8.634;2023-02-15T13:07:28;26.70;73.80
21481;DHT22;10902;48.158;8.634;2023-02-15T13:09:55;26.70;74.50
21481;DHT22;10902;48.158;8.634;2023-02-15T13:12:23;26.30;73.60
21481;DHT22;10902;48.158;8.634;2023-02-15T13:14:53;26.90;74.90
21481;DHT22;10902;48.158;8.634;2023-02-15T13:17:29;27.30;73.40
21481;DHT22;10902;48.158;8.634;2023-02-15T13:20:00;26.10;72.90
21481;DHT22;10902;48.158;8.634;2023-02-15T13:22:57;25.80;72.50
21481;DHT22;10902;48.158;8.634;2023-02-15T13:25:25;26.00;72.90
21481;DHT22;10902;48.158;8.634;2023-02-15T13:27:57;26.40;72.40
21481;DHT22;10902;48.158;8.634;2023-02-15T13:30:38;27.00;71.50
21481;DHT22;10902;48.158;8.634;2023-02-15T13:33:31;27.20;71.60
21481;DHT22;10902;48.158;8.634;2023-02-15T13:36:09;26.90;70.60
21481;DHT22;10902;48.158;8.634;2023-02-15T13:47:12;27.30;71.30
21481;DHT22;10902;48.158;8.634;2023-02-15T13:52:51;27.80;70.30
21481;DHT22;10902;48.158;8.634;2023-02-15T13:55:51;27.70;69.60
21481;DHT22;10902;48.158;8.634;2023-02-15T14:01:31;26.70;68.20
21481;DHT22;10902;48.158;8.634;2023-02-15T14:15:13;25.90;68.70
21481;DHT22;10902;48.158;8.634;2023-02-15T14:23:50;25.80;68.80
21481;DHT22;10902;48.158;8.634;2023-02-15T14:31:37;27.10;67.50
21481;DHT22;10902;48.158;8.634;2023-02-15T14:34:04;27.60;64.30
21481;DHT22;10902;48.158;8.634;2023-02-15T14:36:32;27.30;66.10
21481;DHT22;10902;48.158;8.634;2023-02-15T14:41:58;28.00;63.60
21481;DHT22;10902;48.158;8.634;2023-02-15T14:44:42;27.90;62.00
21481;DHT22;10902;48.158;8.634;2023-02-15T14:47:23;27.40;61.80
21481;DHT22;10902;48.158;8.634;2023-02-15T14:49:50;27.90;61.70
21481;DHT22;10902;48.158;8.634;2023-02-15T14:52:15;28.10;60.70
21481;DHT22;10902;48.158;8.634;2023-02-15T15:15:53;26.60;62.80
21481;DHT22;10902;48.158;8.634;2023-02-15T15:18:42;26.40;63.10
21481;DHT22;10902;48.158;8.634;2023-02-15T15:21:08;26.70;62.20
21481;DHT22;10902;48.158;8.634;2023-02-15T15:23:42;26.80;63.40
21481;DHT22;10902;48.158;8.634;2023-02-15T15:26:25;26.40;64.90
21481;DHT22;10902;48.158;8.634;2023-02-15T15:31:22;25.80;65.00
21481;DHT22;10902;48.158;8.634;2023-02-15T15:45:58;24.30;66.70
21481;DHT22;10902;48.158;8.634;2023-02-15T15:51:04;23.60;67.50
21481;DHT22;10902;48.158;8.634;2023-02-15T15:53:37;23.70;67.40
21481;DHT22;10902;48.158;8.634;2023-02-15T15:56:08;23.60;68.10
21481;DHT22;10902;48.158;8.634;2023-02-15T15:58:35;23.30;68.50
21481;DHT22;10902;48.158;8.634;2023-02-15T16:01:08;22.80;67.80
21481;DHT22;10902;48.158;8.634;2023-02-15T16:03:34;22.40;68.80
21481;DHT22;10902;48.158;8.634;2023-02-15T16:06:00;22.10;69.00
21481;DHT22;10902;48.158;8.634;2023-02-15T16:08:27;22.00;70.70
21481;DHT22;10902;48.158;8.634;2023-02-15T16:10:54;21.80;70.40
21481;DHT22;10902;48.158;8.634;2023-02-15T16:13:20;21.20;70.60
21481;DHT22;10902;48.158;8.634;2023-02-15T16:15:47;20.80;72.20
21481;DHT22;10902;48.158;8.634;2023-02-15T16:18:21;20.40;72.90
21481;DHT22;10902;48.158;8.634;2023-02-15T16:21:01;20.10;73.30
21481;DHT22;10902;48.158;8.634;2023-02-15T16:29:32;17.70;80.80
21481;DHT22;10902;48.158;8.634;2023-02-15T16:32:03;16.50;84.10
21481;DHT22;10902;48.158;8.634;2023-02-15T16:34:29;15.60;85.30
21481;DHT22;10902;48.158;8.634;2023-02-15T16:37:18;15.10;86.70
21481;DHT22;10902;48.158;8.634;2023-02-15T16:39:45;14.50;87.00
21481;DHT22;10902;48.158;8.634;2023-02-15T16:42:13;14.00;89.00
21481;DHT22;10902;48.158;8.634;2023-02-15T16:44:40;13.50;90.30
21481;DHT22;10902;48.158;8.634;2023-02-15T16:47:18;13.20;91.80
21481;DHT22;10902;48.158;8.634;2023-02-15T16:49:49;12.90;92.50
21481;DHT22;10902;48.158;8.634;2023-02-15T16:52:22;12.50;93.40
21481;DHT22;10902;48.158;8.634;2023-02-15T16:54:56;12.20;93.60
21481;DHT22;10902;48.158;8.634;2023-02-15T16:57:26;12.00;94.20
21481;DHT22;10902;48.158;8.634;2023-02-15T16:59:53;11.60;94.80
21481;DHT22;10902;48.158;8.634;2023-02-15T17:02:27;11.30;95.30
21481;DHT22;10902;48.158;8.634;2023-02-15T17:07:50;10.80;95.70
21481;DHT22;10902;48.158;8.634;2023-02-15T17:13:04;10.20;97.60
21481;DHT22;10902;48.158;8.634;2023-02-15T17:16:07;10.00;97.00
21481;DHT22;10902;48.158;8.634;2023-02-15T17:18:54;9.90;96.80
21481;DHT22;10902;48.158;8.634;2023-02-15T17:21:28;9.50;98.80
21481;DHT22;10902;48.158;8.634;2023-02-15T17:24:00;9.30;99.90
21481;DHT22;10902;48.158;8.634;2023-02-15T17:26:35;9.00;99.90
21481;DHT22;10902;48.158;8.634;2023-02-15T17:29:11;8.70;99.90
21481;DHT22;10902;48.158;8.634;2023-02-15T17:31:47;8.10;99.90
21481;DHT22;10902;48.158;8.634;2023-02-15T17:40:14;8.30;99.90
21481;DHT22;10902;48.158;8.634;2023-02-15T17:42:40;8.50;99.90
21481;DHT22;10902;48.158;8.634;2023-02-15T17:45:05;8.30;99.90
21481;DHT22;10902;48.158;8.634;2023-02-15T17:47:31;7.90;99.90
21481;DHT22;10902;48.158;8.634;2023-02-15T17:49:57;7.60;99.90
21481;DHT22;10902;48.158;8.634;2023-02-15T17:52:24;7.50;99.90
21481;DHT22;10902;48.158;8.634;2023-02-15T17:54:53;7.30;99.90
21481;DHT22;10902;48.158;8.634;2023-02-15T17:57:37;7.20;99.90
21481;DHT22;10902;48.158;8.634;2023-02-15T18:00:04;7.10;99.90
21481;DHT22;10902;48.158;8.634;2023-02-15T18:02:49;6.90;99.90
21481;DHT22;10902;48.158;8.634;2023-02-15T18:05:33;6.60;99.90
21481;DHT22;10902;48.158;8.634;2023-02-15T18:08:18;6.60;99.90
21481;DHT22;10902;48.158;8.634;2023-02-15T18:11:05;6.60;99.90
21481;DHT22;10902;48.158;8.634;2023-02-15T18:13:49;6.70;99.90
21481;DHT22;10902;48.158;8.634;2023-02-15T18:16:24;6.50;99.90
21481;DHT22;10902;48.158;8.634;2023-02-15T18:18:51;6.50;99.90
21481;DHT22;10902;48.158;8.634;2023-02-15T18:21:17;6.50;99.90
21481;DHT22;10902;48.158;8.634;2023-02-15T18:23:43;6.40;99.90
21481;DHT22;10902;48.158;8.634;2023-02-15T18:26:15;6.00;99.90
21481;DHT22;10902;48.158;8.634;2023-02-15T18:28:41;5.50;99.90
21481;DHT22;10902;48.158;8.634;2023-02-15T18:31:07;5.40;99.90
21481;DHT22;10902;48.158;8.634;2023-02-15T18:33:34;5.40;99.90
21481;DHT22;10902;48.158;8.634;2023-02-15T18:36:02;5.40;99.90
21481;DHT22;10902;48.158;8.634;2023-02-15T18:38:29;5.20;99.90
21481;DHT22;10902;48.158;8.634;2023-02-15T18:40:54;5.00;99.90
21481;DHT22;10902;48.158;8.634;2023-02-15T18:43:20;5.00;99.90
21481;DHT22;10902;48.158;8.634;2023-02-15T18:45:45;4.90;99.90
21481;DHT22;10902;48.158;8.634;2023-02-15T18:48:11;5.00;99.90
21481;DHT22;10902;48.158;8.634;2023-02-15T18:50:37;5.00;99.90
21481;DHT22;10902;48.158;8.634;2023-02-15T18:53:06;5.00;99.90
21481;DHT22;10902;48.158;8.634;2023-02-15T18:55:32;4.80;99.90
21481;DHT22;10902;48.158;8.634;2023-02-15T18:57:59;4.60;99.90
21481;DHT22;10902;48.158;8.634;2023-02-15T19:00:30;4.40;99.90